Time;durP1;ratioP1;P1;durP2;ratioP2;P2;SDS_P1;SDS_P2;PMS_P1;PMS_P2;Temp;Humidity;BMP_temperature;BMP_pressure;BME280_temperature;BME280_humidity;BME280_pressure;Samples;Min_cycle;Max_cycle;Signal;HPM_P1;HPM_P2
2023/03/13 00:02:22;;;;;;;6.97;5.35;;;;;;;7.53;51.30;98943.28;5087040;28;20207;-74
2023/03/13 00:04:48;;;;;;;7.65;5.97;;;;;;;7.91;50.96;99008.19;5087795;28;20040;-73
2023/03/13 00:07:15;;;;;;;7.78;6.28;;;;;;;7.91;50.88;99004.69;5086923;28;20312;-74
2023/03/13 00:09:42;;;;;;;6.95;6.10;;;;;;;7.88;50.73;99000.44;5086846;28;20310;-73
2023/03/13 00:12:09;;;;;;;7.47;5.53;;;;;;;7.87;50.78;98995.22;5087937;28;20074;-74
2023/03/13 00:14:36;;;;;;;7.55;5.97;;;;;;;7.63;50.87;98957.72;5088210;28;20196;-73
2023/03/13 00:17:04;;;;;;;8.30;5.40;;;;;;;7.89;51.03;98994.22;5086731;28;20037;-73
2023/03/13 00:19:31;;;;;;;6.82;5.65;;;;;;;7.85;50.92;98981.25;5087848;28;20033;-73
2023/03/13 00:21:58;;;;;;;6.93;5.15;;;;;;;7.60;51.04;98950.81;5087505;28;20032;-73
2023/03/13 00:24:24;;;;;;;9.20;5.65;;;;;;;7.84;51.30;98985.69;5086640;28;20047;-72
2023/03/13 00:26:51;;;;;;;7.22;5.45;;;;;;;7.84;51.48;98979.56;5086432;28;20052;-72
2023/03/13 00:29:18;;;;;;;7.22;5.68;;;;;;;7.83;51.12;98980.47;5087611;28;20048;-73
2023/03/13 00:31:45;;;;;;;7.90;5.68;;;;;;;7.80;51.18;98973.56;5087887;28;20044;-73
2023/03/13 00:34:13;;;;;;;7.50;5.90;;;;;;;7.78;51.12;98964.88;5086359;28;20040;-74
2023/03/13 00:36:39;;;;;;;7.60;6.20;;;;;;;7.57;51.07;98923.75;5087149;28;20111;-74
2023/03/13 00:39:06;;;;;;;6.85;5.78;;;;;;;7.72;51.45;98959.91;5087150;28;20033;-73
2023/03/13 00:41:34;;;;;;;7.88;4.97;;;;;;;7.33;51.43;98905.56;5087188;28;20082;-73
2023/03/13 00:44:01;;;;;;;6.20;4.60;;;;;;;7.71;51.40;98963.47;5086216;28;20079;-73
2023/03/13 00:46:29;;;;;;;5.90;4.90;;;;;;;7.70;51.34;98953.84;5087264;28;20059;-72
2023/03/13 00:48:56;;;;;;;6.78;4.45;;;;;;;7.69;51.32;98954.78;5086255;28;20041;-72
2023/03/13 00:51:26;;;;;;;6.25;4.40;;;;;;;6.95;51.11;98822.22;5085943;28;20047;-73
2023/03/13 00:53:53;;;;;;;5.70;4.35;;;;;;;7.73;51.22;98958.13;5086048;28;20036;-73
2023/03/13 00:56:21;;;;;;;6.35;5.50;;;;;;;7.73;51.21;98944.94;5086856;28;20062;-73
2023/03/13 00:58:49;;;;;;;6.00;4.03;;;;;;;7.72;51.12;98972.25;5087315;28;20052;-73
2023/03/13 01:01:18;;;;;;;6.18;4.00;;;;;;;7.70;51.50;98946.81;5085996;28;20331;-72
2023/03/13 01:03:47;;;;;;;5.70;4.30;;;;;;;7.56;51.27;98933.44;5087049;28;20037;-72
2023/03/13 01:06:15;;;;;;;4.65;4.05;;;;;;;7.66;51.18;98945.25;5086972;28;20032;-72
2023/03/13 01:08:45;;;;;;;6.15;3.88;;;;;;;7.67;51.12;98938.19;5086119;28;20040;-72
2023/03/13 01:11:13;;;;;;;5.03;4.07;;;;;;;7.67;51.21;98941.69;5086534;28;20075;-72
2023/03/13 01:13:41;;;;;;;5.22;3.97;;;;;;;7.68;51.13;98934.63;5086816;28;20067;-72
2023/03/13 01:16:09;;;;;;;4.55;3.70;;;;;;;7.68;51.05;98937.25;5086487;28;20048;-72
2023/03/13 01:18:38;;;;;;;5.28;3.97;;;;;;;7.68;51.18;98931.97;5086960;28;20044;-72
2023/03/13 01:21:05;;;;;;;5.28;3.67;;;;;;;7.66;51.28;98929.41;5086672;28;20044;-72
2023/03/13 01:23:32;;;;;;;6.22;3.92;;;;;;;7.67;51.24;98927.63;5086928;28;20108;-72
2023/03/13 01:26:00;;;;;;;5.97;3.80;;;;;;;7.66;51.05;98924.16;5086267;28;20055;-71
2023/03/13 01:28:28;;;;;;;4.40;3.60;;;;;;;7.41;51.17;98873.56;5086209;28;20307;-73
2023/03/13 01:30:54;;;;;;;5.82;3.63;;;;;;;7.44;50.99;98875.19;5086615;28;20046;-72
2023/03/13 01:33:21;;;;;;;4.65;3.85;;;;;;;7.36;50.95;98886.97;5085385;28;20323;-73
2023/03/13 01:35:48;;;;;;;5.45;4.15;;;;;;;7.62;51.00;98919.09;5086343;28;20045;-73
2023/03/13 01:38:15;;;;;;;5.68;4.00;;;;;;;7.61;51.14;98906.84;5086062;28;20047;-73
2023/03/13 01:40:43;;;;;;;6.55;3.95;;;;;;;7.34;51.13;98859.84;5086039;28;20096;-72
2023/03/13 01:43:19;;;;;;;6.07;4.22;;;;;;;7.59;52.51;98909.56;5086250;28;20051;-72
2023/03/13 01:45:58;;;;;;;5.10;4.38;;;;;;;7.57;52.24;98908.78;5086479;28;20054;-72
2023/03/13 01:48:30;;;;;;;5.40;4.18;;;;;;;7.14;51.32;98852.03;5086513;28;20100;-72
2023/03/13 01:51:00;;;;;;;6.97;4.63;;;;;;;7.54;51.21;98921.25;5085768;28;20055;-72
2023/03/13 01:53:29;;;;;;;7.10;4.65;;;;;;;7.53;51.32;98923.06;5085766;28;20036;-72
2023/03/13 01:55:58;;;;;;;6.07;4.13;;;;;;;7.53;51.24;98919.56;5084507;28;20078;-72
2023/03/13 01:58:28;;;;;;;5.60;4.53;;;;;;;7.26;51.25;98877.78;5085747;28;20242;-72
2023/03/13 02:00:55;;;;;;;5.93;3.92;;;;;;;7.48;51.24;98917.16;5086065;28;20047;-72
2023/03/13 02:03:22;;;;;;;5.75;4.45;;;;;;;7.26;51.42;98879.56;5085939;28;20047;-72
2023/03/13 02:05:51;;;;;;;6.63;4.47;;;;;;;7.42;51.55;98908.69;5084933;28;20380;-72
2023/03/13 02:08:21;;;;;;;7.25;4.65;;;;;;;7.11;51.45;98869.78;5085649;28;20040;-72
2023/03/13 02:10:54;;;;;;;6.90;4.68;;;;;;;7.26;51.80;98909.41;5085804;28;20189;-72
2023/03/13 02:13:22;;;;;;;5.75;4.35;;;;;;;6.88;52.11;98874.38;5085792;28;20107;-72
2023/03/13 02:15:51;;;;;;;6.35;4.55;;;;;;;7.16;52.06;98908.16;5085861;28;20037;-72
2023/03/13 02:18:17;;;;;;;5.95;4.63;;;;;;;7.15;51.98;98916.97;5084756;28;20232;-72
2023/03/13 02:20:44;;;;;;;7.93;5.20;;;;;;;7.13;52.01;98917.97;5086015;28;20044;-72
2023/03/13 02:23:20;;;;;;;6.85;4.85;;;;;;;7.13;52.48;98917.97;5084648;28;20119;-72
2023/03/13 02:25:49;;;;;;;6.05;4.75;;;;;;;7.14;51.93;98907.38;5085511;28;20083;-72
2023/03/13 02:28:19;;;;;;;5.20;4.35;;;;;;;7.14;51.86;98912.63;5084651;28;20216;-72
2023/03/13 02:30:49;;;;;;;6.32;5.03;;;;;;;6.58;51.61;98842.41;5085344;28;20047;-72
2023/03/13 02:33:18;;;;;;;6.57;4.97;;;;;;;7.17;51.76;98912.50;5084372;28;20033;-72
2023/03/13 02:35:45;;;;;;;5.82;4.70;;;;;;;7.18;51.77;98908.06;5085839;28;20340;-72
2023/03/13 02:38:16;;;;;;;7.55;5.63;;;;;;;7.15;51.96;98906.44;5085557;28;20056;-72
2023/03/13 02:40:47;;;;;;;6.43;4.45;;;;;;;6.77;51.88;98845.03;5067919;28;20046;-72
2023/03/13 02:43:20;;;;;;;8.98;4.95;;;;;;;7.13;52.35;98905.66;5085264;28;20037;-72
2023/03/13 02:46:05;;;;;;;7.13;4.72;;;;;;;7.15;53.25;98921.41;5084343;28;20205;-72
2023/03/13 02:48:35;;;;;;;6.20;4.38;;;;;;;7.13;51.88;98916.19;5084526;28;20142;-72
2023/03/13 02:51:05;;;;;;;6.63;5.72;;;;;;;6.72;52.16;98853.13;5085092;28;20040;-73
2023/03/13 02:53:34;;;;;;;5.10;4.43;;;;;;;3.50;51.88;98317.91;5084255;28;20036;-72
2023/03/13 02:56:01;;;;;;;6.55;4.93;;;;;;;6.41;52.10;98808.13;5085654;28;20124;-72
2023/03/13 02:58:36;;;;;;;6.72;4.60;;;;;;;7.11;52.97;98923.31;5084164;28;20036;-72
2023/03/13 03:01:06;;;;;;;6.00;5.18;;;;;;;7.13;51.88;98921.47;5083911;28;20037;-73
2023/03/13 03:03:34;;;;;;;8.55;4.75;;;;;;;6.06;51.76;98733.47;5084142;28;20054;-73
2023/03/13 03:06:01;;;;;;;6.45;5.07;;;;;;;7.11;52.23;98915.41;5085252;28;20173;-72
2023/03/13 03:08:28;;;;;;;7.45;4.57;;;;;;;7.11;52.34;98920.69;5086751;28;20054;-72
2023/03/13 03:10:55;;;;;;;6.18;4.90;;;;;;;7.10;52.44;98921.63;5088004;28;20116;-73
2023/03/13 03:13:22;;;;;;;7.07;5.07;;;;;;;6.72;52.52;98854.91;5089101;28;20044;-72
2023/03/13 03:15:50;;;;;;;6.45;4.90;;;;;;;7.08;52.67;98923.47;5088700;28;20219;-73
2023/03/13 03:18:17;;;;;;;5.75;4.95;;;;;;;7.07;52.67;98924.41;5088693;28;20060;-72
2023/03/13 03:20:43;;;;;;;5.68;4.55;;;;;;;6.85;52.60;98881.56;5088251;28;20036;-72
2023/03/13 03:23:10;;;;;;;9.32;6.35;;;;;;;7.06;52.76;98915.63;5088795;28;20032;-73
2023/03/13 03:25:37;;;;;;;5.78;4.95;;;;;;;7.09;52.58;98921.69;5088492;28;20074;-73
2023/03/13 03:28:04;;;;;;;8.52;5.45;;;;;;;7.09;52.65;98926.97;5087958;28;20094;-73
2023/03/13 03:30:30;;;;;;;7.30;5.30;;;;;;;7.07;52.73;98919.97;5088448;28;20040;-73
2023/03/13 03:32:59;;;;;;;6.22;5.20;;;;;;;6.83;52.97;98892.16;5088768;28;20033;-72
2023/03/13 03:35:25;;;;;;;7.85;4.90;;;;;;;7.05;52.80;98931.53;5087979;28;20119;-73
2023/03/13 03:37:52;;;;;;;6.68;5.40;;;;;;;7.06;52.78;98935.88;5088367;28;20043;-73
2023/03/13 03:40:20;;;;;;;7.68;5.63;;;;;;;7.03;52.97;98925.47;5088406;28;20039;-73
2023/03/13 03:42:47;;;;;;;6.63;4.82;;;;;;;6.49;52.94;98829.66;5088342;28;20041;-73
2023/03/13 03:45:13;;;;;;;6.55;5.15;;;;;;;7.03;53.12;98933.38;5088530;28;20101;-73
2023/03/13 03:47:40;;;;;;;6.35;5.13;;;;;;;7.01;53.19;98928.19;5088264;28;20041;-73
2023/03/13 03:50:10;;;;;;;9.50;5.78;;;;;;;6.96;53.25;98916.16;5088041;28;20045;-73
2023/03/13 03:52:37;;;;;;;6.15;4.85;;;;;;;7.02;53.38;98929.03;5088678;28;20036;-73
2023/03/13 03:55:05;;;;;;;9.13;5.05;;;;;;;7.02;53.16;98926.41;5088100;28;20041;-73
2023/03/13 03:57:32;;;;;;;8.25;5.90;;;;;;;7.01;53.26;98928.19;5088638;28;20048;-72
2023/03/13 03:59:58;;;;;;;8.52;6.15;;;;;;;7.03;53.26;98928.09;5088608;28;20115;-73
2023/03/13 04:02:25;;;;;;;6.32;5.03;;;;;;;7.00;53.39;98928.25;5087152;28;20067;-73
2023/03/13 04:04:52;;;;;;;7.10;4.95;;;;;;;6.99;53.46;98929.19;5087083;28;20102;-73
2023/03/13 04:07:20;;;;;;;6.00;5.15;;;;;;;6.98;53.63;98938.00;5087341;28;20300;-73
2023/03/13 04:09:47;;;;;;;9.95;5.45;;;;;;;6.98;53.56;98940.66;5088076;28;20102;-73
2023/03/13 04:12:14;;;;;;;6.65;4.82;;;;;;;7.00;53.46;98933.53;5087752;28;20205;-73
2023/03/13 04:14:40;;;;;;;6.00;4.97;;;;;;;6.82;53.59;98901.00;5087724;28;20048;-72
2023/03/13 04:17:07;;;;;;;6.82;4.80;;;;;;;6.99;53.75;98937.09;5088006;28;20051;-73
2023/03/13 04:19:34;;;;;;;6.05;4.80;;;;;;;6.98;54.03;98925.69;5087863;28;20052;-73
2023/03/13 04:22:01;;;;;;;5.75;5.10;;;;;;;6.98;54.04;98916.94;5086874;28;20036;-73
2023/03/13 04:24:29;;;;;;;7.93;4.68;;;;;;;6.96;54.34;98931.97;5087524;28;20044;-73
2023/03/13 04:26:55;;;;;;;7.90;5.13;;;;;;;6.97;54.08;98931.03;5087384;28;20079;-73
2023/03/13 04:29:22;;;;;;;5.85;4.65;;;;;;;6.96;54.43;98913.50;5087398;28;20036;-73
2023/03/13 04:31:49;;;;;;;7.88;4.38;;;;;;;6.95;54.66;98914.44;5087319;28;20359;-73
2023/03/13 04:34:16;;;;;;;5.95;4.32;;;;;;;6.94;54.71;98896.94;5087925;28;20052;-72
2023/03/13 04:36:43;;;;;;;5.40;4.07;;;;;;;6.88;54.68;98897.22;5087264;28;20205;-72
2023/03/13 04:39:10;;;;;;;5.05;4.40;;;;;;;6.96;54.79;98913.50;5087510;28;20045;-73
2023/03/13 04:41:38;;;;;;;8.23;4.95;;;;;;;6.71;55.04;98867.22;5087722;28;20311;-73
2023/03/13 04:44:05;;;;;;;5.55;4.30;;;;;;;6.97;54.83;98902.06;5087406;28;20220;-73
2023/03/13 04:46:31;;;;;;;6.57;4.47;;;;;;;7.00;54.94;98897.50;5086235;28;20044;-72
2023/03/13 04:48:58;;;;;;;4.97;3.60;;;;;;;7.02;54.95;98895.63;5086167;28;20103;-72
2023/03/13 04:51:25;;;;;;;5.43;3.90;;;;;;;7.04;55.19;98892.94;5086919;28;20040;-72
2023/03/13 04:53:52;;;;;;;5.07;3.92;;;;;;;7.05;54.91;98899.91;5087499;28;20051;-72
2023/03/13 04:56:22;;;;;;;5.55;3.72;;;;;;;6.16;55.51;98762.81;5086921;28;20090;-74
2023/03/13 04:58:51;;;;;;;4.75;2.92;;;;;;;7.08;54.79;98894.50;5086897;28;20319;-74
2023/03/13 05:01:17;;;;;;;6.05;3.13;;;;;;;7.11;54.63;98888.22;5086797;28;20116;-73
2023/03/13 05:03:44;;;;;;;5.72;4.45;;;;;;;7.12;54.48;98888.13;5086462;28;20048;-72
2023/03/13 05:06:11;;;;;;;6.03;3.47;;;;;;;7.14;54.40;98883.66;5086735;28;20036;-73
2023/03/13 05:08:38;;;;;;;4.53;3.40;;;;;;;7.15;54.24;98879.22;5086629;28;20293;-74
2023/03/13 05:11:05;;;;;;;5.20;3.45;;;;;;;7.16;54.27;98883.56;5085923;28;20036;-74
2023/03/13 05:13:32;;;;;;;4.43;3.30;;;;;;;7.15;54.28;98892.41;5086769;28;20032;-73
2023/03/13 05:16:01;;;;;;;7.63;3.85;;;;;;;7.15;54.32;98880.09;5086766;28;20041;-73
2023/03/13 05:18:28;;;;;;;6.35;4.05;;;;;;;7.15;54.28;98879.22;5085615;28;20304;-73
2023/03/13 05:20:55;;;;;;;7.05;3.75;;;;;;;7.13;54.34;98881.94;5086653;28;20045;-72
2023/03/13 05:23:21;;;;;;;7.22;4.05;;;;;;;7.14;54.16;98882.78;5086707;28;20108;-72
2023/03/13 05:25:48;;;;;;;5.45;3.70;;;;;;;7.14;54.16;98888.91;5085186;28;20062;-73
2023/03/13 05:28:15;;;;;;;4.47;3.30;;;;;;;6.31;54.19;98756.84;5085232;28;20033;-73
2023/03/13 05:30:41;;;;;;;4.90;3.60;;;;;;;7.14;54.30;98877.53;5085402;28;20047;-73
2023/03/13 05:33:10;;;;;;;8.13;4.07;;;;;;;7.08;54.19;98878.69;5086664;28;20056;-73
2023/03/13 05:35:37;;;;;;;5.53;3.70;;;;;;;7.07;54.26;98874.34;5086374;28;20040;-73
2023/03/13 05:38:04;;;;;;;7.25;4.05;;;;;;;7.07;54.32;98876.97;5085415;28;20036;-74
2023/03/13 05:40:30;;;;;;;6.50;4.40;;;;;;;7.04;54.29;98875.34;5085108;28;20040;-73
2023/03/13 05:42:58;;;;;;;7.80;4.53;;;;;;;7.05;54.34;98876.19;5085010;28;20040;-73
2023/03/13 05:45:25;;;;;;;6.85;4.38;;;;;;;7.05;54.33;98876.19;5086516;28;20235;-73
2023/03/13 05:47:52;;;;;;;6.80;4.47;;;;;;;7.07;54.35;98877.81;5085018;28;20048;-73
2023/03/13 05:50:21;;;;;;;5.78;4.00;;;;;;;6.75;54.41;98821.38;5086136;28;20162;-72
2023/03/13 05:52:48;;;;;;;5.53;3.92;;;;;;;7.05;54.34;98868.28;5085685;28;20045;-72
2023/03/13 05:55:14;;;;;;;5.22;3.83;;;;;;;7.06;54.35;98857.66;5085630;28;20044;-73
2023/03/13 05:57:45;;;;;;;6.80;4.15;;;;;;;5.72;54.89;98642.97;5085597;28;20364;-73
2023/03/13 06:00:13;;;;;;;5.03;3.78;;;;;;;6.85;54.49;98829.72;5085453;28;20350;-73
2023/03/13 06:02:40;;;;;;;5.82;4.00;;;;;;;7.08;54.66;98857.59;5084604;28;20047;-73
2023/03/13 06:05:08;;;;;;;4.45;3.58;;;;;;;6.83;54.66;98813.16;5085426;28;20040;-73
2023/03/13 06:07:37;;;;;;;5.70;3.50;;;;;;;6.84;54.95;98806.94;5085553;28;20040;-74
2023/03/13 06:10:04;;;;;;;7.05;4.20;;;;;;;7.04;55.03;98840.22;5085628;28;20222;-73
2023/03/13 06:12:31;;;;;;;5.18;4.03;;;;;;;7.04;54.81;98845.50;5085406;28;20395;-74
2023/03/13 06:14:58;;;;;;;6.32;4.15;;;;;;;6.84;55.03;98811.38;5085303;28;20104;-74
2023/03/13 06:17:25;;;;;;;6.40;4.35;;;;;;;7.10;55.15;98845.19;5085214;28;20048;-73
2023/03/13 06:19:52;;;;;;;7.65;3.90;;;;;;;6.73;55.24;98780.25;5084691;28;20044;-74
2023/03/13 06:22:18;;;;;;;5.82;4.07;;;;;;;7.13;55.23;98842.41;5085424;28;20039;-74
2023/03/13 06:24:48;;;;;;;5.65;3.55;;;;;;;6.79;55.43;98776.47;5085174;28;20115;-74
2023/03/13 06:27:15;;;;;;;5.88;3.55;;;;;;;6.95;55.42;98807.28;5085086;28;20040;-73
2023/03/13 06:29:42;;;;;;;5.88;3.90;;;;;;;7.24;55.24;98842.72;5085419;28;20224;-74
2023/03/13 06:32:09;;;;;;;7.25;4.13;;;;;;;7.27;55.29;98841.72;5085479;28;20040;-73
2023/03/13 06:34:36;;;;;;;6.38;3.80;;;;;;;7.32;55.10;98837.94;5084963;28;20196;-74
2023/03/13 06:37:03;;;;;;;5.85;3.88;;;;;;;7.37;54.99;98838.59;5085269;28;20071;-73
2023/03/13 06:39:30;;;;;;;7.43;4.10;;;;;;;7.40;54.92;98831.47;5085026;28;20215;-74
2023/03/13 06:41:58;;;;;;;8.18;3.78;;;;;;;7.48;55.18;98839.84;5085612;28;20040;-73
2023/03/13 06:44:26;;;;;;;7.40;4.30;;;;;;;7.18;54.52;98771.88;5088396;28;20032;-74
2023/03/13 06:46:52;;;;;;;7.32;4.05;;;;;;;6.33;54.54;98619.00;5089233;28;20047;-74
2023/03/13 06:49:19;;;;;;;6.30;3.97;;;;;;;7.63;54.53;98824.06;5088705;28;20098;-73
2023/03/13 06:51:46;;;;;;;9.73;4.20;;;;;;;7.77;54.54;98820.72;5071729;28;20036;-74
2023/03/13 06:54:13;;;;;;;8.10;5.35;;;;;;;7.82;54.06;98788.81;5089130;28;20040;-74
2023/03/13 06:56:39;;;;;;;6.72;4.00;;;;;;;8.22;53.81;98816.56;5088247;28;20047;-73
2023/03/13 06:59:08;;;;;;;7.57;4.80;;;;;;;7.81;53.23;98722.03;5089604;28;20264;-73
2023/03/13 07:01:34;;;;;;;5.32;4.13;;;;;;;8.58;53.12;98821.63;5089004;28;20037;-74
2023/03/13 07:04:01;;;;;;;6.70;4.22;;;;;;;8.74;52.77;98811.91;5088129;28;20042;-73
2023/03/13 07:06:28;;;;;;;7.53;4.47;;;;;;;8.95;52.43;98817.78;5088176;28;20041;-73
2023/03/13 07:08:55;;;;;;;8.18;4.25;;;;;;;9.18;52.13;98801.44;5087920;28;20040;-73
2023/03/13 07:11:21;;;;;;;7.90;5.25;;;;;;;9.33;51.90;98807.66;5089035;28;20036;-74
2023/03/13 07:13:48;;;;;;;6.97;4.45;;;;;;;9.47;51.67;98791.00;5088799;28;20082;-74
2023/03/13 07:16:17;;;;;;;6.60;4.40;;;;;;;9.51;51.29;98752.84;5089349;28;20112;-74
2023/03/13 07:18:44;;;;;;;12.95;4.95;;;;;;;9.93;51.00;98787.28;5088697;28;20064;-74
2023/03/13 07:21:11;;;;;;;8.20;4.63;;;;;;;9.98;50.76;98778.19;5088539;28;20045;-74
2023/03/13 07:23:38;;;;;;;8.20;4.45;;;;;;;9.99;50.82;98788.69;5087845;28;20036;-74
2023/03/13 07:26:07;;;;;;;6.97;4.00;;;;;;;9.98;50.95;98781.69;5088093;28;20063;-74
2023/03/13 07:28:34;;;;;;;4.35;3.40;;;;;;;9.98;50.91;98770.25;5087788;28;20042;-74
2023/03/13 07:31:06;;;;;;;6.18;3.53;;;;;;;9.98;50.84;98764.97;5088958;28;20056;-74
2023/03/13 07:33:35;;;;;;;6.10;3.90;;;;;;;10.07;50.77;98762.59;5088463;28;20044;-74
2023/03/13 07:36:02;;;;;;;9.68;5.13;;;;;;;9.69;50.55;98693.53;5087512;28;20040;-74
2023/03/13 07:38:28;;;;;;;8.18;4.03;;;;;;;10.08;50.33;98758.16;5088412;28;20051;-74
2023/03/13 07:40:57;;;;;;;5.68;3.90;;;;;;;10.03;50.21;98752.28;5088466;28;20215;-74
2023/03/13 07:43:25;;;;;;;9.10;3.97;;;;;;;9.99;50.40;98743.69;5087380;28;20036;-74
2023/03/13 07:45:54;;;;;;;7.43;3.75;;;;;;;9.94;50.48;98751.91;5088183;28;20297;-74
2023/03/13 07:48:21;;;;;;;6.05;3.63;;;;;;;9.92;50.59;98769.69;5088091;28;20243;-74
2023/03/13 07:50:49;;;;;;;7.82;3.33;;;;;;;9.65;50.29;98722.91;5088029;28;20032;-73
2023/03/13 07:53:20;;;;;;;6.93;3.03;;;;;;;9.86;50.32;98766.56;5092010;28;20043;-74
2023/03/13 07:55:55;;;;;;;5.97;3.17;;;;;;;9.75;49.74;98769.88;5092483;28;20173;-74
2023/03/13 07:58:22;;;;;;;9.80;3.20;;;;;;;9.74;50.33;98746.16;5095630;28;20096;-74
2023/03/13 08:00:49;;;;;;;4.07;3.00;;;;;;;9.73;49.99;98755.03;5095660;28;20056;-74
2023/03/13 08:03:16;;;;;;;5.22;2.72;;;;;;;9.72;50.07;98751.53;5095593;28;20039;-74
2023/03/13 08:05:43;;;;;;;5.32;2.90;;;;;;;9.36;49.82;98679.69;5095997;28;20044;-74
2023/03/13 08:08:11;;;;;;;5.70;3.28;;;;;;;9.86;49.52;98751.53;5095344;28;20036;-74
2023/03/13 08:10:38;;;;;;;5.97;3.65;;;;;;;8.86;49.44;98591.03;5093757;28;20322;-74
2023/03/13 08:13:05;;;;;;;4.82;3.08;;;;;;;10.19;48.98;98755.69;5094107;28;20036;-74
2023/03/13 08:15:32;;;;;;;5.70;2.83;;;;;;;10.24;48.76;98727.13;5094993;28;20040;-74
2023/03/13 08:17:59;;;;;;;5.70;3.08;;;;;;;7.12;48.33;98181.09;5094082;28;20062;-74
2023/03/13 08:20:25;;;;;;;4.72;2.90;;;;;;;10.42;48.22;98725.09;5090685;28;20036;-74
2023/03/13 08:22:52;;;;;;;3.60;2.60;;;;;;;10.47;47.96;98730.94;5088435;28;20077;-74
2023/03/13 08:25:21;;;;;;;7.15;2.55;;;;;;;10.48;47.46;98724.69;5087186;28;20053;-74
2023/03/13 08:27:47;;;;;;;4.82;3.22;;;;;;;10.46;47.87;98724.78;5088462;28;20044;-74
2023/03/13 08:30:15;;;;;;;7.90;3.00;;;;;;;10.33;47.71;98678.00;5087686;28;20050;-74
2023/03/13 08:32:41;;;;;;;4.53;3.35;;;;;;;10.56;47.55;98706.50;5087998;28;20040;-74
2023/03/13 08:35:09;;;;;;;5.18;3.60;;;;;;;10.68;47.41;98720.75;5087774;28;20234;-74
2023/03/13 08:37:36;;;;;;;4.93;3.15;;;;;;;10.78;47.16;98712.13;5087557;28;20044;-74
2023/03/13 08:40:08;;;;;;;5.15;3.00;;;;;;;10.85;47.11;98712.56;5087742;28;20055;-74
2023/03/13 08:42:37;;;;;;;4.72;3.25;;;;;;;10.82;47.05;98703.00;5086518;28;20043;-74
2023/03/13 08:45:05;;;;;;;6.05;3.05;;;;;;;10.86;46.88;98701.00;5087566;28;20032;-74
2023/03/13 08:47:32;;;;;;;5.88;3.33;;;;;;;10.91;46.79;98712.16;5087182;28;20041;-74
2023/03/13 08:49:59;;;;;;;4.63;3.10;;;;;;;10.88;46.77;98713.22;5087114;28;20040;-74
2023/03/13 08:52:26;;;;;;;8.23;3.83;;;;;;;10.89;47.02;98706.94;5086509;28;20036;-74
2023/03/13 08:54:53;;;;;;;7.18;3.90;;;;;;;10.99;46.92;98703.69;5086762;28;20281;-74
2023/03/13 08:57:20;;;;;;;6.50;3.30;;;;;;;11.13;46.53;98711.56;5087223;28;20051;-74
2023/03/13 08:59:48;;;;;;;5.53;3.28;;;;;;;10.77;46.44;98616.78;5086146;28;20036;-74
2023/03/13 09:02:18;;;;;;;4.93;3.33;;;;;;;11.06;46.22;98634.22;5086984;28;20040;-74
2023/03/13 09:04:46;;;;;;;4.18;3.70;;;;;;;11.27;46.11;98670.84;5085717;28;20052;-74
2023/03/13 09:07:13;;;;;;;6.20;3.53;;;;;;;11.45;46.08;98691.63;5085984;28;20048;-74
2023/03/13 09:09:40;;;;;;;4.90;2.97;;;;;;;11.28;46.16;98660.13;5086597;28;20040;-75
2023/03/13 09:12:07;;;;;;;6.07;3.28;;;;;;;11.08;45.98;98626.16;5085937;28;20247;-74
2023/03/13 09:14:34;;;;;;;4.32;3.17;;;;;;;11.48;46.25;98690.59;5087059;28;20044;-74
2023/03/13 09:17:03;;;;;;;5.70;3.40;;;;;;;11.49;46.27;98692.28;5086577;28;20048;-74
2023/03/13 09:19:30;;;;;;;5.25;3.50;;;;;;;11.32;46.13;98674.88;5085380;28;20098;-74
2023/03/13 09:21:57;;;;;;;6.70;4.00;;;;;;;11.57;46.29;98687.28;5085715;28;20036;-75
2023/03/13 09:24:23;;;;;;;7.72;4.57;;;;;;;11.55;46.12;98698.00;5086450;28;20204;-75
2023/03/13 09:26:50;;;;;;;4.43;3.70;;;;;;;11.55;46.27;98689.19;5085051;28;20056;-75
2023/03/13 09:29:17;;;;;;;5.15;3.90;;;;;;;11.59;46.20;98706.59;5086240;28;20232;-74
2023/03/13 09:31:44;;;;;;;4.88;3.75;;;;;;;11.67;46.19;98708.72;5085398;28;20037;-74
2023/03/13 09:34:12;;;;;;;6.93;4.00;;;;;;;11.76;45.83;98708.94;5086714;28;20063;-75
2023/03/13 09:36:39;;;;;;;5.57;3.30;;;;;;;11.89;45.69;98696.50;5086306;28;20115;-75
2023/03/13 09:39:06;;;;;;;8.60;4.20;;;;;;;12.01;45.38;98692.16;5086720;28;20116;-75
2023/03/13 09:41:38;;;;;;;7.10;4.75;;;;;;;11.81;45.18;98643.09;5086354;28;20102;-74
2023/03/13 09:44:13;;;;;;;5.63;4.35;;;;;;;12.05;44.58;98683.00;5085267;28;20037;-75
2023/03/13 09:46:46;;;;;;;8.13;4.32;;;;;;;12.24;44.57;98689.69;5086140;28;20044;-75
2023/03/13 09:49:32;;;;;;;6.53;4.70;;;;;;;12.49;43.71;98695.75;5086081;28;20162;-74
2023/03/13 09:52:10;;;;;;;8.35;4.95;;;;;;;12.13;43.75;98616.03;5083896;28;20051;-74
2023/03/13 09:54:41;;;;;;;5.88;4.22;;;;;;;12.36;43.57;98631.19;5085930;28;20036;-75
2023/03/13 09:57:16;;;;;;;8.07;5.32;;;;;;;12.74;42.75;98688.63;5086030;28;20036;-75
2023/03/13 09:59:49;;;;;;;8.00;5.00;;;;;;;12.74;43.31;98721.38;5085900;28;20064;-75
2023/03/13 10:02:25;;;;;;;8.80;5.30;;;;;;;12.54;42.03;98663.50;5086083;28;20059;-75
2023/03/13 10:05:00;;;;;;;8.27;6.00;;;;;;;12.58;42.63;98672.97;5086272;28;20044;-75
2023/03/13 10:07:27;;;;;;;9.05;4.85;;;;;;;12.31;43.47;98659.03;5086154;28;20054;-74
2023/03/13 10:09:56;;;;;;;8.88;5.70;;;;;;;12.13;43.50;98621.34;5085117;28;20313;-76
2023/03/13 10:12:27;;;;;;;7.18;5.07;;;;;;;12.02;43.03;98595.56;5084853;28;20067;-74
2023/03/13 10:15:12;;;;;;;6.63;5.55;;;;;;;12.55;41.53;98659.03;5085785;28;20041;-75
2023/03/13 10:17:39;;;;;;;7.93;5.50;;;;;;;12.51;42.72;98651.31;5085303;28;20119;-75
2023/03/13 10:20:21;;;;;;;8.07;5.78;;;;;;;12.30;41.45;98626.31;5085754;28;20052;-75
2023/03/13 10:22:51;;;;;;;6.95;5.50;;;;;;;12.47;42.69;98646.31;5085269;28;20277;-75
2023/03/13 10:25:27;;;;;;;7.82;6.03;;;;;;;11.91;41.68;98566.28;5084733;28;20053;-75
2023/03/13 10:27:56;;;;;;;8.80;5.18;;;;;;;12.18;42.92;98621.91;5084493;28;20362;-75
2023/03/13 10:30:26;;;;;;;9.75;5.30;;;;;;;11.73;43.00;98565.81;5068029;28;20102;-75
2023/03/13 10:32:59;;;;;;;6.95;5.18;;;;;;;12.27;41.86;98645.13;5085392;28;20041;-75
2023/03/13 10:35:34;;;;;;;10.27;5.95;;;;;;;12.33;41.86;98638.53;5084951;28;20165;-75
2023/03/13 10:38:06;;;;;;;7.03;5.85;;;;;;;12.39;42.12;98627.44;5084724;28;20045;-75
2023/03/13 10:40:32;;;;;;;9.68;5.88;;;;;;;12.03;42.12;98585.81;5084635;28;20044;-74
2023/03/13 10:43:05;;;;;;;6.80;5.35;;;;;;;12.28;41.61;98628.22;5085355;28;20038;-75
2023/03/13 10:45:35;;;;;;;8.05;5.82;;;;;;;12.10;42.12;98611.81;5085923;28;20040;-75
2023/03/13 10:48:04;;;;;;;8.52;6.25;;;;;;;11.49;42.14;98507.38;5085314;28;20304;-75
2023/03/13 10:50:36;;;;;;;8.45;5.95;;;;;;;12.40;41.52;98621.16;5067794;28;20037;-74
2023/03/13 10:53:22;;;;;;;7.07;5.55;;;;;;;12.13;40.43;98562.91;5084198;28;20054;-75
2023/03/13 10:55:52;;;;;;;8.50;5.85;;;;;;;12.50;42.02;98614.22;5085326;28;20051;-75
2023/03/13 10:58:22;;;;;;;7.80;4.93;;;;;;;12.12;41.89;98543.47;5085298;28;20044;-75
2023/03/13 11:00:50;;;;;;;8.52;5.32;;;;;;;12.54;42.10;98604.19;5051507;28;20048;-75
2023/03/13 11:03:20;;;;;;;7.60;5.15;;;;;;;12.54;42.17;98610.34;5085132;28;20104;-75
2023/03/13 11:05:57;;;;;;;10.05;4.85;;;;;;;12.51;40.66;98603.47;5085157;28;20040;-75
2023/03/13 11:08:26;;;;;;;8.95;5.72;;;;;;;12.48;42.06;98606.34;5084950;28;20318;-74
2023/03/13 11:10:56;;;;;;;6.60;5.30;;;;;;;12.34;41.95;98569.31;5084744;28;20040;-75
2023/03/13 11:13:35;;;;;;;7.45;5.53;;;;;;;11.84;40.95;98486.22;5083750;28;20029;-75
2023/03/13 11:16:18;;;;;;;7.68;6.03;;;;;;;12.60;40.91;98619.69;5084567;28;20374;-75
2023/03/13 11:19:14;;;;;;;7.97;5.35;;;;;;;12.47;40.63;98590.50;5084600;28;20189;-74
2023/03/13 11:21:56;;;;;;;6.88;5.25;;;;;;;12.39;40.50;98582.28;5084727;28;20048;-74
2023/03/13 11:24:30;;;;;;;6.60;5.03;;;;;;;12.07;40.99;98508.44;5084702;28;20292;-75
2023/03/13 11:27:05;;;;;;;6.03;4.82;;;;;;;12.65;41.10;98607.75;5083467;28;20128;-75
2023/03/13 11:29:40;;;;;;;7.05;5.10;;;;;;;12.66;41.35;98600.63;5085269;28;20202;-75
2023/03/13 11:32:17;;;;;;;8.70;5.93;;;;;;;11.95;40.89;98476.63;5088117;28;20037;-75
2023/03/13 11:34:51;;;;;;;6.72;4.88;;;;;;;12.56;41.15;98567.72;5088481;28;20037;-75
2023/03/13 11:37:21;;;;;;;8.05;5.35;;;;;;;12.78;41.25;98599.69;5088521;28;20200;-74
2023/03/13 11:39:59;;;;;;;6.93;4.50;;;;;;;12.79;40.56;98596.91;5070219;28;20054;-75
2023/03/13 11:42:56;;;;;;;8.13;4.07;;;;;;;12.59;40.06;98570.13;5088684;28;20036;-75
2023/03/13 11:45:46;;;;;;;7.35;4.97;;;;;;;12.59;40.07;98556.84;5084175;28;20063;-75
2023/03/13 11:48:26;;;;;;;7.10;4.55;;;;;;;12.76;40.61;98589.16;5087395;28;20048;-75